Time;durP1;ratioP1;P1;durP2;ratioP2;P2;SDS_P1;SDS_P2;PMS_P1;PMS_P2;Temp;Humidity;BMP_temperature;BMP_pressure;BME280_temperature;BME280_humidity;BME280_pressure;Samples;Min_cycle;Max_cycle;Signal;HPM_P1;HPM_P2
2024/03/25 00:00:44;;;;;;;0.82;0.70;;;6.20;60.10;;;;;;5058676;28;20037;-70
2024/03/25 00:03:10;;;;;;;2.92;1.38;;;6.20;60.30;;;;;;5066749;28;20036;-70
2024/03/25 00:05:36;;;;;;;7.10;2.08;;;6.10;60.70;;;;;;5054374;28;20087;-75
2024/03/25 00:08:03;;;;;;;5.32;1.92;;;6.00;60.70;;;;;;5063425;28;20036;-71
2024/03/25 00:10:29;;;;;;;;;;;6.00;60.60;;;;;;5067083;28;20067;-70
2024/03/25 00:12:56;;;;;;;;;;;6.00;60.80;;;;;;5054666;28;19927;-70
2024/03/25 00:15:23;;;;;;;;;;;5.90;61.80;;;;;;5054212;28;20473;-73
2024/03/25 00:17:50;;;;;;;;;;;5.80;61.30;;;;;;5053071;28;19946;-70
2024/03/25 00:20:16;;;;;;;;;;;5.80;61.20;;;;;;5053033;28;19940;-76
2024/03/25 00:22:41;;;;;;;;;;;5.90;61.20;;;;;;5069936;28;20290;-75
2024/03/25 00:25:08;;;;;;;;;;;5.90;61.10;;;;;;5054407;28;19913;-70
2024/03/25 00:27:34;;;;;;;;;;;5.80;60.80;;;;;;5070285;28;19960;-70
2024/03/25 00:30:00;;;;;;;;;;;5.80;61.30;;;;;;5036979;28;19920;-70
2024/03/25 00:32:26;;;;;;;;;;;5.90;61.10;;;;;;5069643;28;19920;-75
2024/03/25 00:34:52;;;;;;;;;;;5.90;60.90;;;;;;5053810;28;19917;-76
2024/03/25 00:37:18;;;;;;;;;;;5.80;61.00;;;;;;5070503;28;20003;-70
2024/03/25 00:39:45;;;;;;;;;;;5.70;61.20;;;;;;5053797;28;19917;-75
2024/03/25 00:42:11;;;;;;;;;;;5.70;61.00;;;;;;5053216;28;19970;-76
2024/03/25 00:44:37;;;;;;;;;;;5.70;61.20;;;;;;5054875;28;20019;-70
2024/03/25 00:47:03;;;;;;;;;;;5.60;61.10;;;;;;5069716;28;19924;-75
2024/03/25 00:49:29;;;;;;;;;;;5.60;61.00;;;;;;5052841;28;20475;-75
2024/03/25 00:51:55;;;;;;;;;;;5.60;60.90;;;;;;5053588;28;19920;-75
2024/03/25 00:54:21;;;;;;;;;;;5.60;60.90;;;;;;5069776;28;19995;-75
2024/03/25 00:56:47;;;;;;;;;;;5.50;61.40;;;;;;5054235;28;20084;-76
2024/03/25 00:59:12;;;;;;;;;;;5.40;61.00;;;;;;5070323;28;19920;-75
2024/03/25 01:01:38;;;;;;;;;;;5.40;61.90;;;;;;5052424;28;20377;-75
2024/03/25 01:04:04;;;;;;;;;;;5.40;61.70;;;;;;5052487;28;20014;-70
2024/03/25 01:06:30;;;;;;;;;;;5.30;61.70;;;;;;5053081;28;19913;-70
2024/03/25 01:08:56;;;;;;;;;;;5.30;61.60;;;;;;5053243;28;19913;-75
2024/03/25 01:11:22;;;;;;;;;;;5.20;61.50;;;;;;5053851;28;19923;-76
2024/03/25 01:13:48;;;;;;;;;;;5.10;61.80;;;;;;5069048;28;20277;-70
2024/03/25 01:16:14;;;;;;;;;;;5.10;61.80;;;;;;5052932;28;19913;-70
2024/03/25 01:18:40;;;;;;;;;;;5.10;62.40;;;;;;5054318;28;20003;-70
2024/03/25 01:21:06;;;;;;;;;;;5.10;62.30;;;;;;5053657;28;20292;-75
2024/03/25 01:23:32;;;;;;;;;;;5.00;61.10;;;;;;5052987;28;19920;-70
2024/03/25 01:25:58;;;;;;;;;;;5.10;61.80;;;;;;5069588;28;19913;-70
2024/03/25 01:28:24;;;;;;;;;;;5.00;62.40;;;;;;5052952;28;19924;-71
2024/03/25 01:30:50;;;;;;;;;;;4.90;62.30;;;;;;5068841;28;20019;-76
2024/03/25 01:33:16;;;;;;;;;;;4.80;62.60;;;;;;5052914;28;19952;-70
2024/03/25 01:35:42;;;;;;;;;;;4.80;62.80;;;;;;5052385;28;20007;-70
2024/03/25 01:38:08;;;;;;;;;;;4.80;62.20;;;;;;5052255;28;19966;-70
2024/03/25 01:40:34;;;;;;;;;;;4.70;62.50;;;;;;5034672;28;19921;-76
2024/03/25 01:43:01;;;;;;;;;;;4.80;62.20;;;;;;5053383;28;19925;-70
2024/03/25 01:45:30;;;;;;;;;;;4.70;62.20;;;;;;5051717;28;19952;-76
2024/03/25 01:47:57;;;;;;;;;;;4.70;62.20;;;;;;5051992;28;20388;-70
2024/03/25 01:50:24;;;;;;;;;;;4.80;62.20;;;;;;5067852;28;20012;-75
2024/03/25 01:52:50;;;;;;;;;;;4.70;62.20;;;;;;5051768;28;19924;-70
2024/03/25 01:55:21;;;;;;;;;;;4.70;62.20;;;;;;5068143;28;19925;-76
2024/03/25 01:57:47;;;;;;;;;;;4.60;62.80;;;;;;5051712;28;19921;-76
2024/03/25 02:00:16;;;;;;;;;;;4.60;62.50;;;;;;5051874;28;20328;-75
2024/03/25 02:02:44;;;;;;;;;;;4.50;62.30;;;;;;5035664;28;19956;-76
2024/03/25 02:05:10;;;;;;;;;;;4.30;62.10;;;;;;5068093;28;19913;-70
2024/03/25 02:07:36;;;;;;;;;;;4.30;62.80;;;;;;5035659;28;20037;-70
2024/03/25 02:10:04;;;;;;;;;;;4.40;62.80;;;;;;5053325;28;20377;-75
2024/03/25 02:12:31;;;;;;;;;;;4.40;62.60;;;;;;5051729;28;20354;-70
2024/03/25 02:14:58;;;;;;;;;;;4.40;62.60;;;;;;5051403;28;19982;-72
2024/03/25 02:17:24;;;;;;;;;;;4.40;62.10;;;;;;5053176;28;19951;-75
2024/03/25 02:19:50;;;;;;;;;;;4.40;62.40;;;;;;5068722;28;20321;-70
2024/03/25 02:22:16;;;;;;;;;;;4.30;63.30;;;;;;5052526;28;19952;-75
2024/03/25 02:24:45;;;;;;;;;;;4.30;63.80;;;;;;5068376;28;19916;-74
2024/03/25 02:27:14;;;;;;;;;;;4.20;63.40;;;;;;5068188;28;20289;-75
2024/03/25 02:29:41;;;;;;;;;;;4.20;63.40;;;;;;5051531;28;19966;-75
2024/03/25 02:32:10;;;;;;;;;;;4.20;63.90;;;;;;5051867;28;19939;-75
2024/03/25 02:34:54;;;;;;;;;;;4.20;63.20;;;;;;5050958;28;19920;-75
2024/03/25 02:37:20;;;;;;;;;;;4.20;63.20;;;;;;5067301;28;19923;-75
2024/03/25 02:39:46;;;;;;;;;;;4.20;63.40;;;;;;5067893;28;19916;-75
2024/03/25 02:42:12;;;;;;;;;;;4.20;63.50;;;;;;5052061;28;19921;-75
2024/03/25 02:44:38;;;;;;;;;;;4.20;63.50;;;;;;5051467;28;19927;-75
2024/03/25 02:47:04;;;;;;;;;;;4.10;64.10;;;;;;5067380;28;20016;-75
2024/03/25 02:49:30;;;;;;;;;;;4.10;64.00;;;;;;5051015;28;19920;-70
2024/03/25 02:51:56;;;;;;;;;;;4.10;64.10;;;;;;5067217;28;19923;-76
2024/03/25 02:54:22;;;;;;;;;;;4.10;64.00;;;;;;5067593;28;20321;-75
2024/03/25 02:56:48;;;;;;;;;;;4.10;63.60;;;;;;5051740;28;20366;-75
2024/03/25 02:59:14;;;;;;;;;;;4.00;63.40;;;;;;5051912;28;19947;-76
2024/03/25 03:01:39;;;;;;;;;;;4.00;63.10;;;;;;5051158;28;20023;-70
2024/03/25 03:04:06;;;;;;;;;;;3.90;63.50;;;;;;5050689;28;19936;-76
2024/03/25 03:06:32;;;;;;;;;;;3.90;63.60;;;;;;5050600;28;19966;-69
2024/03/25 03:08:58;;;;;;;;;;;3.90;63.90;;;;;;5051757;28;20015;-70
2024/03/25 03:11:24;;;;;;;;;;;3.80;64.00;;;;;;5050879;28;20194;-75
2024/03/25 03:13:50;;;;;;;;;;;3.80;64.10;;;;;;5051455;28;20007;-70
2024/03/25 03:16:16;;;;;;;;;;;3.70;63.90;;;;;;5051512;28;19995;-70
2024/03/25 03:18:42;;;;;;;;;;;3.80;63.90;;;;;;5052644;28;19916;-75
2024/03/25 03:21:07;;;;;;;;;;;3.80;64.00;;;;;;5050206;28;20429;-70
2024/03/25 03:23:33;;;;;;;;;;;3.70;63.90;;;;;;5052141;28;20011;-75
2024/03/25 03:26:00;;;;;;;;;;;3.80;63.50;;;;;;5050752;28;20023;-75
2024/03/25 03:28:28;;;;;;;;;;;3.70;63.80;;;;;;5052026;28;19971;-75
2024/03/25 03:30:54;;;;;;;;;;;3.70;63.90;;;;;;5050243;28;19948;-75
2024/03/25 03:33:21;;;;;;;;;;;3.70;63.80;;;;;;5052090;28;19916;-75
2024/03/25 03:35:47;;;;;;;;;;;3.70;63.70;;;;;;5051055;28;19978;-70
2024/03/25 03:38:13;;;;;;;;;;;3.60;63.90;;;;;;5066669;28;19920;-75
2024/03/25 03:40:38;;;;;;;;;;;3.60;64.10;;;;;;5066078;28;20015;-75
2024/03/25 03:43:04;;;;;;;;;;;3.60;64.20;;;;;;5050448;28;20007;-70
2024/03/25 03:45:34;;;;;;;;;;;3.60;64.10;;;;;;5051420;28;20283;-75
2024/03/25 03:48:00;;;;;;;;;;;3.50;64.00;;;;;;5051703;28;20286;-70
2024/03/25 03:50:26;;;;;;;;;;;3.60;64.10;;;;;;5066369;28;19960;-70
2024/03/25 03:52:52;;;;;;;;;;;3.50;64.20;;;;;;5051525;28;19971;-75
2024/03/25 03:55:19;;;;;;;;;;;3.50;64.30;;;;;;5050957;28;19923;-70
2024/03/25 03:57:45;;;;;;;;;;;3.50;64.20;;;;;;5066693;28;19967;-70
2024/03/25 04:00:14;;;;;;;;;;;3.40;64.80;;;;;;5049949;28;20389;-75
2024/03/25 04:02:39;;;;;;;;;;;3.30;65.00;;;;;;5050756;28;19923;-70
2024/03/25 04:05:06;;;;;;;;;;;3.40;65.20;;;;;;5067136;28;19920;-69
2024/03/25 04:07:35;;;;;;;;;;;3.30;64.60;;;;;;5067352;28;19923;-70
2024/03/25 04:10:00;;;;;;;;;;;3.40;64.70;;;;;;5050175;28;20362;-70
2024/03/25 04:12:26;;;;;;;;;;;3.40;64.50;;;;;;5066025;28;19962;-70
2024/03/25 04:14:55;;;;;;;;;;;3.40;64.50;;;;;;5051546;28;19923;-70
2024/03/25 04:17:22;;;;;;;;;;;3.40;64.70;;;;;;5051546;28;19970;-70
2024/03/25 04:19:50;;;;;;;;;;;3.40;64.50;;;;;;5050122;28;19916;-70
2024/03/25 04:22:16;;;;;;;;;;;3.40;64.30;;;;;;5049412;28;19921;-70
2024/03/25 04:24:43;;;;;;;;;;;3.40;64.70;;;;;;5066258;28;19917;-70
2024/03/25 04:27:09;;;;;;;;;;;3.30;64.60;;;;;;5066083;28;19930;-75
2024/03/25 04:29:35;;;;;;;;;;;3.20;64.70;;;;;;5049549;28;19917;-70
2024/03/25 04:32:02;;;;;;;;;;;3.20;64.90;;;;;;5065540;28;19996;-75
2024/03/25 04:34:29;;;;;;;;;;;3.20;64.90;;;;;;5066201;28;19946;-73
2024/03/25 04:36:56;;;;;;;;;;;3.20;64.90;;;;;;5067080;28;19923;-75
2024/03/25 04:39:22;;;;;;;;;;;3.10;64.90;;;;;;5053285;28;20267;-76
2024/03/25 04:41:48;;;;;;;;;;;3.10;64.90;;;;;;5054057;28;20412;-74
2024/03/25 04:44:14;;;;;;;;;;;3.10;65.00;;;;;;5070396;28;19991;-76
2024/03/25 04:46:40;;;;;;;;;;;3.10;64.90;;;;;;5054556;28;20011;-70
2024/03/25 04:49:06;;;;;;;;;;;3.10;64.00;;;;;;5053056;28;19927;-70
2024/03/25 04:51:32;;;;;;;;;;;3.10;64.90;;;;;;5054531;28;19980;-75
2024/03/25 04:53:58;;;;;;;;;;;3.10;65.00;;;;;;5052818;28;19927;-76
2024/03/25 04:56:24;;;;;;;;;;;3.10;65.10;;;;;;5052551;28;20367;-76
2024/03/25 04:58:49;;;;;;;;;;;3.10;65.30;;;;;;5069864;28;20441;-70
2024/03/25 05:01:15;;;;;;;;;;;3.00;65.20;;;;;;5069214;28;20348;-75
2024/03/25 05:03:41;;;;;;;;;;;3.00;65.00;;;;;;5054622;28;19955;-76
2024/03/25 05:06:11;;;;;;;;;;;3.00;64.90;;;;;;5053929;28;20408;-70
2024/03/25 05:08:37;;;;;;;;;;;3.00;64.90;;;;;;5054724;28;19924;-70
2024/03/25 05:11:03;;;;;;;;;;;3.00;64.90;;;;;;5053319;28;19920;-74
2024/03/25 05:13:28;;;;;;;;;;;3.10;64.60;;;;;;5054154;28;19921;-70
2024/03/25 05:15:54;;;;;;;;;;;3.00;64.40;;;;;;5052256;28;19947;-75
2024/03/25 05:18:20;;;;;;;;;;;3.00;64.50;;;;;;5054036;28;20382;-75
2024/03/25 05:20:46;;;;;;;;;;;3.10;64.90;;;;;;5053070;28;19921;-75
2024/03/25 05:23:12;;;;;;;;;;;3.20;64.70;;;;;;5068949;28;20025;-70
2024/03/25 05:25:38;;;;;;;;;;;3.20;64.20;;;;;;5053222;28;20007;-71
2024/03/25 05:28:04;;;;;;;;;;;3.30;63.80;;;;;;5052226;28;19970;-70
2024/03/25 05:30:30;;;;;;;;;;;3.40;63.80;;;;;;5051609;28;20360;-75
2024/03/25 05:32:56;;;;;;;;;;;3.50;64.10;;;;;;5051946;28;19961;-70
2024/03/25 05:35:22;;;;;;;;;;;3.50;64.00;;;;;;5051873;28;19921;-76
2024/03/25 05:37:48;;;;;;;;;;;3.70;64.10;;;;;;5052308;28;20011;-72
2024/03/25 05:40:15;;;;;;;;;;;3.80;63.90;;;;;;5052717;28;20071;-75
2024/03/25 05:42:41;;;;;;;;;;;3.80;63.70;;;;;;5073612;28;19956;-76
2024/03/25 05:45:09;;;;;;;;;;;3.80;64.40;;;;;;5071858;28;19935;-76
2024/03/25 05:47:35;;;;;;;;;;;3.90;65.10;;;;;;5071456;28;20278;-75
2024/03/25 05:50:04;;;;;;;;;;;4.00;65.20;;;;;;5072166;28;19967;-70
2024/03/25 05:52:29;;;;;;;;;;;4.10;64.30;;;;;;5072832;28;20682;-76
2024/03/25 05:54:55;;;;;;;;;;;4.20;64.00;;;;;;5071397;28;19958;-76
2024/03/25 05:57:21;;;;;;;;;;;4.30;64.30;;;;;;5072771;28;19927;-70
2024/03/25 05:59:47;;;;;;;;;;;4.30;64.30;;;;;;5072899;28;19955;-76
2024/03/25 06:02:13;;;;;;;;;;;4.40;64.20;;;;;;5070933;28;19928;-74
2024/03/25 06:04:39;;;;;;;;;;;4.50;64.20;;;;;;5071873;28;19958;-75
2024/03/25 06:07:05;;;;;;;;;;;4.60;63.50;;;;;;5054634;28;19959;-75
2024/03/25 06:09:31;;;;;;;;;;;4.70;63.60;;;;;;5071333;28;20361;-71
2024/03/25 06:11:57;;;;;;;;;;;4.70;63.60;;;;;;5070685;28;20263;-70
2024/03/25 06:14:23;;;;;;;;;;;4.80;63.50;;;;;;5072196;28;20251;-70
2024/03/25 06:16:49;;;;;;;;;;;4.80;63.60;;;;;;5071111;28;20575;-70
2024/03/25 06:19:15;;;;;;;;;;;4.80;62.80;;;;;;5072523;28;19916;-75
2024/03/25 06:21:42;;;;;;;;;;;4.80;63.20;;;;;;5070560;28;20385;-70
2024/03/25 06:24:08;;;;;;;;;;;4.80;63.20;;;;;;5072142;28;19958;-75
2024/03/25 06:26:34;;;;;;;;;;;4.80;63.20;;;;;;5072190;28;20422;-70
2024/03/25 06:29:00;;;;;;;;;;;4.80;63.10;;;;;;5072147;28;19916;-75
2024/03/25 06:34:14;;;;;;;;;;;4.90;63.50;;;;;;5072142;28;19922;-70
2024/03/25 06:36:40;;;;;;;;;;;4.90;63.40;;;;;;5070645;28;19916;-75
2024/03/25 06:39:06;;;;;;;;;;;5.00;63.00;;;;;;5054114;28;19986;-70
2024/03/25 06:41:32;;;;;;;;;;;4.90;63.90;;;;;;5070249;28;19917;-75
2024/03/25 06:43:58;;;;;;;;;;;5.00;63.60;;;;;;5071829;28;19916;-71
2024/03/25 06:46:24;;;;;;;;;;;5.10;64.40;;;;;;5053988;28;19951;-75
2024/03/25 06:48:52;;;;;;;;;;;5.20;64.10;;;;;;5070528;28;20007;-70
2024/03/25 06:51:18;;;;;;;;;;;5.20;64.10;;;;;;5053978;28;20343;-74
2024/03/25 06:53:44;;;;;;;;;;;5.30;63.30;;;;;;5071712;28;19967;-70
2024/03/25 06:56:10;;;;;;;;;;;5.40;63.70;;;;;;5070411;28;20007;-71
2024/03/25 06:58:36;;;;;;;;;;;5.60;63.40;;;;;;5070179;28;19991;-70
2024/03/25 07:01:21;;;;;;;;;;;5.70;63.80;;;;;;5069823;28;19920;-70
2024/03/25 07:03:47;;;;;;;;;;;5.90;63.70;;;;;;5071630;28;20293;-76
2024/03/25 07:06:13;;;;;;;;;;;5.90;63.90;;;;;;5071652;28;19931;-70
2024/03/25 07:08:39;;;;;;;;;;;5.90;64.10;;;;;;5070523;28;20392;-70
2024/03/25 07:11:05;;;;;;;;;;;6.00;64.30;;;;;;5069835;28;19920;-71
2024/03/25 07:13:32;;;;;;;;;;;6.10;64.10;;;;;;5071911;28;20036;-70
2024/03/25 07:15:58;;;;;;;;;;;6.20;64.10;;;;;;5071347;28;19923;-75
2024/03/25 07:18:24;;;;;;;;;;;6.30;64.00;;;;;;5071847;28;19959;-75
2024/03/25 07:20:50;;;;;;;;;;;6.50;63.90;;;;;;5069593;28;20372;-70
2024/03/25 07:23:15;;;;;;;;;;;6.50;63.70;;;;;;5070390;28;19916;-75
2024/03/25 07:25:41;;;;;;;;;;;6.50;64.10;;;;;;5071147;28;19952;-75
2024/03/25 07:28:07;;;;;;;;;;;6.60;63.80;;;;;;5070435;28;20010;-75
2024/03/25 07:30:33;;;;;;;;;;;6.70;63.80;;;;;;5070760;28;19927;-74
2024/03/25 07:32:59;;;;;;;;;;;6.80;64.10;;;;;;5070303;28;19978;-70
2024/03/25 07:35:25;;;;;;;;;;;6.90;64.10;;;;;;5071239;28;20006;-72
2024/03/25 07:37:51;;;;;;;;;;;7.10;64.30;;;;;;5071488;28;19952;-75
2024/03/25 07:40:18;;;;;;;;;;;7.20;64.90;;;;;;5069957;28;20381;-75
2024/03/25 07:42:44;;;;;;;;;;;7.40;65.20;;;;;;5069929;28;19916;-76
2024/03/25 07:45:10;;;;;;;;;;;7.90;65.10;;;;;;5069889;28;19962;-75
2024/03/25 07:47:36;;;;;;;;;;;8.40;64.90;;;;;;5070142;28;20373;-76
2024/03/25 07:50:03;;;;;;;;;;;9.10;63.30;;;;;;5070066;28;19916;-75
2024/03/25 07:52:29;;;;;;;;;;;9.80;63.00;;;;;;5052617;28;20439;-76
2024/03/25 07:54:55;;;;;;;;;;;10.50;61.40;;;;;;5053126;28;19920;-70
2024/03/25 07:57:21;;;;;;;;;;;11.30;60.30;;;;;;5069452;28;19924;-71
2024/03/25 07:59:47;;;;;;;;;;;12.10;55.50;;;;;;5071143;28;20525;-71
2024/03/25 08:02:13;;;;;;;;;;;12.80;54.70;;;;;;5069265;28;19924;-76
2024/03/25 08:04:39;;;;;;;;;;;13.40;48.50;;;;;;5069787;28;19916;-71
2024/03/25 08:07:05;;;;;;;;;;;14.00;50.10;;;;;;5071142;28;19920;-75
2024/03/25 08:09:31;;;;;;;;;;;15.00;48.90;;;;;;5069752;28;19963;-71
2024/03/25 08:11:57;;;;;;;;;;;15.50;43.70;;;;;;5070082;28;19927;-76
2024/03/25 08:14:23;;;;;;;;;;;16.30;43.40;;;;;;5074873;28;19952;-70
2024/03/25 08:16:49;;;;;;;;;;;17.00;38.70;;;;;;5073298;28;19967;-70
2024/03/25 08:19:15;;;;;;;;;;;17.70;39.20;;;;;;5073619;28;19912;-71
2024/03/25 08:21:41;;;;;;;;;;;18.40;37.60;;;;;;5072824;28;20375;-76
2024/03/25 08:24:07;;;;;;;;;;;18.90;36.50;;;;;;5073370;28;20582;-71
2024/03/25 08:26:33;;;;;;;;;;;19.50;33.50;;;;;;5073092;28;19924;-75
2024/03/25 08:28:59;;;;;;;;;;;20.00;32.40;;;;;;5074549;28;19939;-75
2024/03/25 08:31:25;;;;;;;;;;;20.50;30.90;;;;;;5072937;28;19978;-76
2024/03/25 08:33:51;;;;;;;;;;;21.00;29.70;;;;;;5074494;28;19925;-71
2024/03/25 08:36:18;;;;;;;;;;;21.60;28.50;;;;;;5072916;28;20424;-75
2024/03/25 08:38:44;;;;;;;;;;;22.30;28.00;;;;;;5073140;28;19924;-75
2024/03/25 08:41:10;;;;;;;;;;;22.90;26.90;;;;;;5072606;28;19917;-72
2024/03/25 08:43:36;;;;;;;;;;;23.30;26.70;;;;;;5074601;28;20376;-70
2024/03/25 08:46:03;;;;;;;;;;;23.20;24.30;;;;;;5074263;28;19920;-71
2024/03/25 08:48:29;;;;;;;;;;;23.30;24.70;;;;;;5056264;28;19916;-71
2024/03/25 08:50:55;;;;;;;;;;;23.70;25.00;;;;;;5072359;28;19916;-75
2024/03/25 08:53:21;;;;;;;;;;;24.50;24.90;;;;;;5074509;28;20068;-74
2024/03/25 08:55:48;;;;;;;;;;;25.20;23.10;;;;;;5073748;28;19912;-75
2024/03/25 08:58:14;;;;;;;;;;;25.70;22.20;;;;;;5072505;28;20003;-75
2024/03/25 09:00:40;;;;;;;;;;;26.40;21.50;;;;;;5072254;28;19916;-72
2024/03/25 09:03:06;;;;;;;;;;;27.00;20.00;;;;;;5074242;28;19933;-75
2024/03/25 09:05:33;;;;;;;;;;;27.60;19.90;;;;;;5072473;28;19916;-72
2024/03/25 09:07:59;;;;;;;;;;;28.00;19.20;;;;;;5074028;28;19966;-71
2024/03/25 09:13:09;;;;;;;;;;;28.80;18.60;;;;;;5074254;28;20285;-72
2024/03/25 09:15:35;;;;;;;;;;;29.60;18.00;;;;;;5072344;28;19912;-74
2024/03/25 09:18:01;;;;;;;;;;;30.40;17.50;;;;;;5073405;28;20365;-72
2024/03/25 09:20:27;;;;;;;;;;;30.70;16.30;;;;;;5071636;28;20016;-72
2024/03/25 09:22:53;;;;;;;;;;;31.20;16.20;;;;;;5073449;28;19924;-72
2024/03/25 09:25:19;;;;;;;;;;;31.60;15.40;;;;;;5072792;28;19919;-74
2024/03/25 09:27:46;;;;;;;;;;;31.90;15.10;;;;;;5072276;28;19950;-74
2024/03/25 09:30:12;;;;;;;;;;;32.40;14.80;;;;;;5055004;28;20348;-72
2024/03/25 09:32:38;;;;;;;;;;;32.70;13.50;;;;;;5073167;28;20120;-75
2024/03/25 09:35:05;;;;;;;;;;;33.60;13.50;;;;;;5073316;28;19955;-74
2024/03/25 09:37:31;;;;;;;;;;;33.90;13.20;;;;;;5071957;28;20366;-75
2024/03/25 09:43:02;;;;;;;;;;;34.20;12.20;;;;;;5073104;28;19973;-72
2024/03/25 09:45:29;;;;;;;;;;;34.70;11.60;;;;;;5071739;28;19958;-75
2024/03/25 09:47:55;;;;;;;;;;;34.90;10.60;;;;;;5073318;28;19927;-73
2024/03/25 09:50:22;;;;;;;;;;;35.30;10.50;;;;;;5071427;28;19913;-74
2024/03/25 09:52:51;;;;;;;;;;;35.60;10.40;;;;;;5071713;28;19935;-75
2024/03/25 09:55:17;;;;;;;;;;;35.40;11.00;;;;;;5072736;28;19963;-73
2024/03/25 09:57:44;;;;;;;;;;;35.20;10.20;;;;;;5071355;28;19994;-74
2024/03/25 10:00:11;;;;;;;;;;;35.10;10.80;;;;;;5054479;28;19919;-72
2024/03/25 10:02:38;;;;;;;;;;;35.60;10.50;;;;;;5071422;28;19970;-72
2024/03/25 10:05:05;;;;;;;;;;;35.90;10.20;;;;;;5071456;28;19923;-72
2024/03/25 10:07:31;;;;;;;;;;;36.20;10.30;;;;;;5072842;28;19924;-74
2024/03/25 10:09:58;;;;;;;;;;;36.20;9.30;;;;;;5072585;28;20277;-72
2024/03/25 10:12:24;;;;;;;;;;;36.90;9.80;;;;;;5072201;28;20284;-72
2024/03/25 10:14:50;;;;;;;;;;;36.80;8.90;;;;;;5071188;28;19912;-72
2024/03/25 10:17:16;;;;;;;;;;;36.80;8.40;;;;;;5071135;28;19927;-71
2024/03/25 10:19:42;;;;;;;;;;;37.10;9.10;;;;;;5071200;28;19912;-74
2024/03/25 10:22:09;;;;;;;;;;;37.20;9.30;;;;;;5072066;28;20073;-73
2024/03/25 10:24:54;;;;;;;;;;;37.70;8.70;;;;;;5071191;28;20427;-75
2024/03/25 10:27:22;;;;;;;;;;;37.70;7.80;;;;;;5072456;28;19927;-71
2024/03/25 10:30:07;;;;;;;;;;;38.00;7.40;;;;;;5071027;28;19947;-74
2024/03/25 10:32:33;;;;;;;;;;;38.40;6.70;;;;;;5070642;28;20416;-73
2024/03/25 10:35:00;;;;;;;;;;;38.60;7.60;;;;;;5070611;28;20309;-73
2024/03/25 10:37:27;;;;;;;;;;;39.00;8.00;;;;;;5070750;28;19946;-74
2024/03/25 10:39:56;;;;;;;;;;;39.60;7.40;;;;;;5054122;28;19920;-71
2024/03/25 10:42:22;;;;;;;;;;;39.80;6.50;;;;;;5070072;28;19948;-73
2024/03/25 10:44:49;;;;;;;;;;;39.30;6.50;;;;;;5070778;28;19912;-72
2024/03/25 10:47:37;;;;;;;;;;;39.60;6.60;;;;;;5072004;28;19920;-72
2024/03/25 10:50:09;;;;;;;;;;;39.60;6.40;;;;;;5071532;28;19964;-72
2024/03/25 10:52:36;;;;;;;;;;;39.00;7.00;;;;;;5053861;28;19924;-72
2024/03/25 10:55:03;;;;;;;;;;;39.30;6.50;;;;;;5070322;28;20389;-74
2024/03/25 10:57:29;;;;;;;;;;;40.30;5.20;;;;;;5070196;28;20346;-72
2024/03/25 10:59:56;;;;;;;;;;;40.50;3.30;;;;;;5070555;28;19912;-74
2024/03/25 11:02:22;;;;;;;;;;;39.60;3.40;;;;;;5071389;28;19921;-74
2024/03/25 11:04:49;;;;;;;;;;;40.40;2.40;;;;;;5070437;28;19916;-72
2024/03/25 11:07:15;;;;;;;;;;;39.50;4.50;;;;;;5070093;28;19921;-72
2024/03/25 11:09:42;;;;;;;;;;;39.80;2.50;;;;;;5070386;28;19959;-72
2024/03/25 11:12:32;;;;;;;;;;;40.60;3.40;;;;;;5069801;28;20293;-74
2024/03/25 11:14:57;;;;;;;;;;;41.00;3.80;;;;;;5070274;28;20392;-72
2024/03/25 11:17:23;;;;;;;;;;;41.30;3.60;;;;;;5071454;28;20011;-72
2024/03/25 11:19:49;;;;;;;;;;;41.70;3.30;;;;;;5070381;28;20006;-72
2024/03/25 11:22:15;;;;;;;;;;;42.10;3.50;;;;;;5070831;28;20015;-74
2024/03/25 11:24:44;;;;;;;;;;;42.20;3.40;;;;;;5053401;28;19916;-72
2024/03/25 11:27:10;;;;;;;;;;;42.40;3.70;;;;;;5069978;28;20393;-72
2024/03/25 11:29:35;;;;;;;;;;;41.50;3.20;;;;;;5071436;28;20077;-74
2024/03/25 11:32:20;;;;;;;;;;;41.40;3.70;;;;;;5069518;28;19959;-73
2024/03/25 11:35:05;;;;;;;;;;;41.90;3.60;;;;;;5070250;28;20467;-74
2024/03/25 11:37:31;;;;;;;;;;;42.40;3.60;;;;;;5069940;28;19920;-72
2024/03/25 11:40:15;;;;;;;;;;;43.20;3.70;;;;;;5070121;28;20499;-71
2024/03/25 11:42:45;;;;;;;;;;;44.30;1.90;;;;;;5071194;28;19916;-74
2024/03/25 11:45:30;;;;;;;;;;;44.90;1.60;;;;;;5053767;28;20010;-72
2024/03/25 11:47:56;;;;;;;;;;;45.40;1.90;;;;;;5072865;28;19920;-72
2024/03/25 11:50:22;;;;;;;;;;;46.10;2.30;;;;;;5073586;28;19974;-74
2024/03/25 11:52:48;;;;;;;;;;;45.80;2.30;;;;;;5075582;28;20396;-71
2024/03/25 11:55:33;;;;;;;;;;;45.40;2.30;;;;;;5075290;28;20323;-72
2024/03/25 11:57:59;;;;;;;;;;;43.90;2.10;;;;;;5057239;28;19920;-73
2024/03/25 12:00:25;;;;;;;;;;;41.10;2.90;;;;;;5073205;28;19926;-72
2024/03/25 12:02:52;;;;;;;;;;;40.80;2.90;;;;;;5075184;28;19928;-71
2024/03/25 12:05:18;;;;;;;;;;;41.60;2.70;;;;;;5074929;28;20299;-72
2024/03/25 12:07:44;;;;;;;;;;;41.60;3.10;;;;;;5073690;28;19925;-74
2024/03/25 12:12:55;;;;;;;;;;;43.60;2.90;;;;;;5075152;28;20399;-74
2024/03/25 12:15:22;;;;;;;;;;;44.30;1.70;;;;;;5073503;28;19978;-74
2024/03/25 12:17:47;;;;;;;;;;;45.70;2.20;;;;;;5073728;28;19927;-72
2024/03/25 12:20:13;;;;;;;;;;;46.20;1.30;;;;;;5073079;28;20277;-73
2024/03/25 12:22:40;;;;;;;;;;;47.00;1.30;;;;;;5056922;28;20007;-74
2024/03/25 12:25:07;;;;;;;;;;;46.30;1.00;;;;;;5074261;28;19963;-72
2024/03/25 12:27:34;;;;;;;;;;;44.50;1.40;;;;;;5056844;28;19932;-73
2024/03/25 12:30:01;;;;;;;;;;;43.50;2.30;;;;;;5056667;28;19942;-74
2024/03/25 12:32:50;;;;;;;;;;;43.30;2.30;;;;;;5072731;28;20246;-73
2024/03/25 12:35:17;;;;;;;;;;;45.20;2.60;;;;;;5073286;28;19952;-74
2024/03/25 12:37:45;;;;;;;;;;;46.30;2.00;;;;;;5073149;28;19925;-74
2024/03/25 12:40:14;;;;;;;;;;;45.50;1.60;;;;;;5072725;28;19923;-71
2024/03/25 12:42:40;;;;;;;;;;;45.40;1.40;;;;;;5073447;28;19928;-75
2024/03/25 12:45:07;;;;;;;;;;;45.40;1.40;;;;;;5072877;28;20046;-71
2024/03/25 12:47:33;;;;;;;;;;;45.80;1.20;;;;;;5073051;28;19916;-74
2024/03/25 12:49:59;;;;;;;;;;;46.80;1.10;;;;;;5074181;28;19917;-74
2024/03/25 12:52:25;;;;;;;;;;;47.70;1.00;;;;;;5073816;28;20392;-75
2024/03/25 12:54:51;;;;;;;;;;;48.10;1.00;;;;;;5072718;28;19923;-72
2024/03/25 12:57:18;;;;;;;;;;;47.50;1.00;;;;;;5072453;28;19916;-74
2024/03/25 12:59:45;;;;;;;;;;;47.90;1.00;;;;;;5072917;28;19913;-74
2024/03/25 13:02:12;;;;;;;;;;;48.30;1.20;;;;;;5073551;28;19926;-71
2024/03/25 13:04:39;;;;;;;;;;;48.60;1.20;;;;;;5072804;28;19916;-72
2024/03/25 13:07:05;;;;;;;;;;;47.40;1.00;;;;;;5072243;28;19920;-74
2024/03/25 13:09:31;;;;;;;;;;;46.90;1.40;;;;;;5074262;28;19966;-71
2024/03/25 13:11:57;;;;;;;;;;;46.00;1.80;;;;;;5071990;28;20011;-75
2024/03/25 13:14:24;;;;;;;;;;;45.80;1.20;;;;;;5072355;28;19942;-74
2024/03/25 13:16:50;;;;;;;;;;;45.80;2.10;;;;;;5072393;28;19920;-74
2024/03/25 13:19:16;;;;;;;;;;;46.00;1.20;;;;;;5072491;28;20369;-71
2024/03/25 13:21:42;;;;;;;;;;;46.90;1.20;;;;;;5073042;28;20005;-71
2024/03/25 13:24:08;;;;;;;;;;;47.10;1.00;;;;;;5073652;28;19912;-72
2024/03/25 13:26:33;;;;;;;;;;;47.10;1.00;;;;;;5073231;28;19920;-75
2024/03/25 13:29:00;;;;;;;;;;;47.40;1.00;;;;;;5055546;28;19912;-72
2024/03/25 13:31:26;;;;;;;;;;;46.80;1.00;;;;;;5054878;28;19917;-75
2024/03/25 13:33:52;;;;;;;;;;;46.50;1.00;;;;;;5055344;28;19920;-71
2024/03/25 13:36:18;;;;;;;;;;;45.90;1.30;;;;;;5071953;28;19912;-74
2024/03/25 13:38:44;;;;;;;;;;;46.10;1.00;;;;;;5073406;28;20400;-71
2024/03/25 13:41:10;;;;;;;;;;;45.90;1.00;;;;;;5071406;28;19916;-71
2024/03/25 13:43:43;;;;;;;;;;;46.10;1.00;;;;;;5071970;28;20419;-71
2024/03/25 13:46:09;;;;;;;;;;;46.20;1.00;;;;;;5055185;28;19923;-71
2024/03/25 13:48:35;;;;;;;;;;;46.60;1.00;;;;;;5071924;28;19917;-74
2024/03/25 13:51:00;;;;;;;;;;;46.10;2.00;;;;;;5072578;28;19971;-71
2024/03/25 13:53:26;;;;;;;;;;;46.00;1.90;;;;;;5073523;28;19920;-71
2024/03/25 13:55:52;;;;;;;;;;;45.60;1.40;;;;;;5072812;28;20015;-71
2024/03/25 13:58:18;;;;;;;;;;;46.10;1.00;;;;;;5072958;28;19947;-71
2024/03/25 14:00:44;;;;;;;;;;;46.70;1.00;;;;;;5072730;28;19921;-74
2024/03/25 14:03:10;;;;;;;;;;;46.90;1.00;;;;;;5073180;28;19927;-74
2024/03/25 14:05:36;;;;;;;;;;;46.40;1.60;;;;;;5071548;28;19916;-71
2024/03/25 14:08:02;;;;;;;;;;;46.10;1.30;;;;;;5072805;28;19925;-71
2024/03/25 14:10:28;;;;;;;;;;;46.40;1.00;;;;;;5071580;28;19928;-75
2024/03/25 14:12:53;;;;;;;;;;;46.20;1.10;;;;;;5072816;28;20340;-72
2024/03/25 14:15:19;;;;;;;;;;;45.40;2.00;;;;;;5071034;28;19999;-71
2024/03/25 14:17:45;;;;;;;;;;;44.10;1.70;;;;;;5072635;28;20331;-71
2024/03/25 14:20:11;;;;;;;;;;;43.50;1.90;;;;;;5071828;28;19919;-75
2024/03/25 14:22:37;;;;;;;;;;;43.60;1.10;;;;;;5072585;28;20285;-71
2024/03/25 14:25:03;;;;;;;;;;;43.60;1.70;;;;;;5070911;28;20528;-72
2024/03/25 14:27:29;;;;;;;;;;;43.60;1.30;;;;;;5072313;28;19916;-74
2024/03/25 14:29:55;;;;;;;;;;;43.30;1.40;;;;;;5071023;28;20396;-71
2024/03/25 14:32:22;;;;;;;;;;;43.20;1.40;;;;;;5071838;28;19917;-71
2024/03/25 14:34:49;;;;;;;;;;;42.40;1.00;;;;;;5071077;28;20257;-72